Erbie, Arkansas
Current Conditions -  °F | °C
As of 11:53 PM on Saturday 20 Dec 2014 (Local Time) from KHRO Reporting Station
Overcast Overcast  
Wind Chill: 36°   Ceiling: 2500
Heat Index: 40°   Visibility: 10mi
Dew Point: 36°   Wind: 6mph
Humidity: 86%   Direction: 150°SSE
Pressure: 30.19"   Gusts: NA
Location:  36.0842°N, 93.1502°W
Report Text: KHRO 210553Z AUTO 15005KT 10SM OVC025 04/02 A3019 RMK AO2 SLP228 T00440022 10056 20039 400610022 58003 $
Loading
Personal Weather Stations






























Interactive Weather Map New forecast layout! Learn more

10-Day Weather Forecast

Advertisements
Track Severe Weather on mobile